createdAt,value
2019-03-11T00:00:16.713Z,3.99
2019-03-11T00:01:16.743Z,3.88
2019-03-11T00:02:17.007Z,3.96
2019-03-11T00:03:16.281Z,3.95
2019-03-11T00:04:17.387Z,4.00
2019-03-11T00:05:17.094Z,4.00
2019-03-11T00:06:16.362Z,3.95
2019-03-11T00:07:16.629Z,3.92
2019-03-11T00:08:16.894Z,3.86
2019-03-11T00:09:17.352Z,3.86
2019-03-11T00:10:16.639Z,3.93
2019-03-11T00:11:16.673Z,3.89
2019-03-11T00:12:16.940Z,3.90
2019-03-11T00:13:16.210Z,3.88
2019-03-11T00:14:16.483Z,3.89
2019-03-11T00:15:16.747Z,3.92
2019-03-11T00:16:17.015Z,3.92
2019-03-11T00:17:16.294Z,3.93
2019-03-11T00:18:16.575Z,3.93
2019-03-11T00:19:16.843Z,3.89
2019-03-11T00:20:17.122Z,3.90
2019-03-11T00:21:17.177Z,3.93
2019-03-11T00:22:16.446Z,3.88
2019-03-11T00:23:16.714Z,3.88
2019-03-11T00:24:16.981Z,4.02
2019-03-11T00:25:16.266Z,3.99
2019-03-11T00:26:16.529Z,3.93
2019-03-11T00:27:16.794Z,4.03
2019-03-11T00:28:17.081Z,4.06
2019-03-11T00:29:16.343Z,3.96
2019-03-11T00:30:16.618Z,3.95
2019-03-11T00:31:16.689Z,4.06
2019-03-11T00:32:16.944Z,4.10
2019-03-11T00:33:16.210Z,4.08
2019-03-11T00:34:16.490Z,4.09
2019-03-11T00:35:16.754Z,4.09
2019-03-11T00:36:17.013Z,4.10
2019-03-11T00:37:16.309Z,4.12
2019-03-11T00:38:16.587Z,4.10
2019-03-11T00:39:16.860Z,4.08
2019-03-11T00:40:17.150Z,4.10
2019-03-11T00:41:17.174Z,4.12
2019-03-11T00:42:16.454Z,4.10
2019-03-11T00:43:16.716Z,4.12
2019-03-11T00:44:16.988Z,3.62
2019-03-11T00:45:16.256Z,2.75
2019-03-11T00:46:16.507Z,2.53
2019-03-11T00:47:16.782Z,2.05
2019-03-11T00:48:17.043Z,1.98
2019-03-11T00:49:16.302Z,1.90
2019-03-11T00:50:16.582Z,1.95
2019-03-11T00:51:16.614Z,1.89
2019-03-11T00:52:16.880Z,1.86
2019-03-11T00:53:17.176Z,1.81
2019-03-11T00:54:16.466Z,1.78
2019-03-11T00:55:16.726Z,1.64
2019-03-11T00:56:16.987Z,1.69
2019-03-11T00:57:16.248Z,1.68
2019-03-11T00:58:16.520Z,1.71
2019-03-11T00:59:16.788Z,1.72
2019-03-11T01:00:17.063Z,1.71
2019-03-11T01:01:17.120Z,1.72
2019-03-11T01:02:16.376Z,1.60
2019-03-11T01:03:16.639Z,1.64
2019-03-11T01:04:16.919Z,1.62
2019-03-11T01:05:17.200Z,1.64
2019-03-11T01:06:16.470Z,1.61
2019-03-11T01:07:16.740Z,1.67
2019-03-11T01:08:17.005Z,1.69
2019-03-11T01:09:16.266Z,1.79
2019-03-11T01:10:16.549Z,1.74
2019-03-11T01:11:16.586Z,1.75
2019-03-11T01:12:16.846Z,1.74
2019-03-11T01:13:17.110Z,1.68
2019-03-11T01:14:16.377Z,1.64
2019-03-11T01:15:16.729Z,1.64
2019-03-11T01:16:17.055Z,1.61
2019-03-11T01:17:16.324Z,1.60
2019-03-11T01:18:16.596Z,1.57
2019-03-11T01:19:16.875Z,1.60
2019-03-11T01:20:17.159Z,1.58
2019-03-11T01:21:17.193Z,1.55
2019-03-11T01:22:16.466Z,1.62
2019-03-11T01:23:16.735Z,1.54
2019-03-11T01:24:17.024Z,1.48
2019-03-11T01:25:16.293Z,1.51
2019-03-11T01:26:16.563Z,1.54
2019-03-11T01:27:16.828Z,1.58
2019-03-11T01:28:17.096Z,1.57
2019-03-11T01:29:16.362Z,1.61
2019-03-11T01:30:16.655Z,1.57
2019-03-11T01:31:16.688Z,1.47
2019-03-11T01:32:16.955Z,1.39
2019-03-11T01:33:16.245Z,1.44
2019-03-11T01:34:16.518Z,1.47
2019-03-11T01:35:16.788Z,1.53
2019-03-11T01:36:17.054Z,1.46
2019-03-11T01:37:16.328Z,1.39
2019-03-11T01:38:16.632Z,1.33
2019-03-11T01:39:16.900Z,1.39
2019-03-11T01:40:17.167Z,1.34
2019-03-11T01:41:16.214Z,1.27
2019-03-11T01:42:16.477Z,1.34
2019-03-11T01:43:16.737Z,1.31
2019-03-11T01:44:17.001Z,1.24
2019-03-11T01:45:16.284Z,1.22
2019-03-11T01:46:16.592Z,1.19
2019-03-11T01:47:16.851Z,1.09
2019-03-11T01:48:17.123Z,1.13
2019-03-11T01:49:16.389Z,1.16
2019-03-11T01:50:16.762Z,1.16
2019-03-11T01:51:16.817Z,1.09
2019-03-11T01:52:17.075Z,1.04
2019-03-11T01:53:16.347Z,0.95
2019-03-11T01:54:16.616Z,0.93
2019-03-11T01:55:16.881Z,0.86
2019-03-11T01:56:17.147Z,0.88
2019-03-11T01:57:16.411Z,0.82
2019-03-11T01:58:16.684Z,0.85
2019-03-11T01:59:16.953Z,0.86
2019-03-11T02:00:16.223Z,0.86
2019-03-11T02:01:16.286Z,0.92
2019-03-11T02:02:16.557Z,0.93
2019-03-11T02:03:16.815Z,0.98
2019-03-11T02:04:17.507Z,0.98
2019-03-11T02:05:16.779Z,0.93
2019-03-11T02:06:17.048Z,0.89
2019-03-11T02:07:16.315Z,0.92
2019-03-11T02:08:16.584Z,1.02
2019-03-11T02:09:16.853Z,0.99
2019-03-11T02:10:17.487Z,1.02
2019-03-11T02:11:17.180Z,0.98
2019-03-11T02:12:16.455Z,0.95
2019-03-11T02:13:16.719Z,0.95
2019-03-11T02:14:16.990Z,0.98
2019-03-11T02:15:16.258Z,0.96
2019-03-11T02:16:16.526Z,0.96
2019-03-11T02:17:16.785Z,0.96
2019-03-11T02:18:17.055Z,0.96
2019-03-11T02:19:16.323Z,0.93
2019-03-11T02:20:16.599Z,0.91
2019-03-11T02:21:16.676Z,0.93
2019-03-11T02:22:16.943Z,0.91
2019-03-11T02:23:16.207Z,0.88
2019-03-11T02:24:16.512Z,0.91
2019-03-11T02:25:16.791Z,0.91
2019-03-11T02:26:17.080Z,0.81
2019-03-11T02:27:16.354Z,0.75
2019-03-11T02:28:16.625Z,0.81
2019-03-11T02:29:16.882Z,0.82
2019-03-11T02:30:17.244Z,0.96
2019-03-11T02:31:16.224Z,1.06
2019-03-11T02:32:16.505Z,1.19
2019-03-11T02:33:16.781Z,1.29
2019-03-11T02:34:17.057Z,1.44
2019-03-11T02:35:16.330Z,1.46
2019-03-11T02:36:16.599Z,1.53
2019-03-11T02:37:16.876Z,1.67
2019-03-11T02:38:17.144Z,1.68
2019-03-11T02:39:16.410Z,1.77
2019-03-11T02:40:16.699Z,1.86
2019-03-11T02:41:16.744Z,1.86
2019-03-11T02:42:17.016Z,2.14
2019-03-11T02:43:16.283Z,2.20
2019-03-11T02:44:16.557Z,2.32
2019-03-11T02:45:16.825Z,2.33
2019-03-11T02:46:17.153Z,2.29
2019-03-11T02:47:16.422Z,2.26
2019-03-11T02:48:16.694Z,2.53
2019-03-11T02:49:16.994Z,2.60
2019-03-11T02:50:16.320Z,2.64
2019-03-11T02:51:16.376Z,2.61
2019-03-11T02:52:16.665Z,2.71
2019-03-11T02:53:16.929Z,2.69
2019-03-11T02:54:17.200Z,2.84
2019-03-11T02:55:16.489Z,2.98
2019-03-11T02:56:16.752Z,3.02
2019-03-11T02:57:17.022Z,2.93
2019-03-11T02:58:16.291Z,2.91
2019-03-11T02:59:16.571Z,3.07
2019-03-11T03:00:16.883Z,2.98
2019-03-11T03:01:16.904Z,3.00
2019-03-11T03:02:17.190Z,3.02
2019-03-11T03:03:16.474Z,3.03
2019-03-11T03:04:16.754Z,2.93
2019-03-11T03:05:17.040Z,2.93
2019-03-11T03:06:16.305Z,3.07
2019-03-11T03:07:16.595Z,3.17
2019-03-11T03:08:16.885Z,3.09
2019-03-11T03:09:17.169Z,3.10
2019-03-11T03:10:16.450Z,3.23
2019-03-11T03:11:16.498Z,3.34
2019-03-11T03:12:16.766Z,3.34
2019-03-11T03:13:17.031Z,3.39
2019-03-11T03:14:16.295Z,3.30
2019-03-11T03:15:16.598Z,3.30
2019-03-11T03:16:16.874Z,3.27
2019-03-11T03:17:17.153Z,3.39
2019-03-11T03:18:16.419Z,3.34
2019-03-11T03:19:16.694Z,3.33
2019-03-11T03:20:16.982Z,3.44
2019-03-11T03:21:16.809Z,3.53
2019-03-11T03:22:17.097Z,3.36
2019-03-11T03:23:16.385Z,3.36
2019-03-11T03:24:16.672Z,3.40
2019-03-11T03:25:16.947Z,3.39
2019-03-11T03:26:16.268Z,3.46
2019-03-11T03:27:16.544Z,3.44
2019-03-11T03:28:16.814Z,3.43
2019-03-11T03:29:17.088Z,3.40
2019-03-11T03:30:16.386Z,3.37
2019-03-11T03:31:16.452Z,3.26
2019-03-11T03:32:16.776Z,3.37
2019-03-11T03:33:17.086Z,3.51
2019-03-11T03:34:16.391Z,3.49
2019-03-11T03:35:16.732Z,3.64
2019-03-11T03:36:17.086Z,3.60
2019-03-11T03:37:16.350Z,3.67
2019-03-11T03:38:29.308Z,3.64
2019-03-11T03:39:16.289Z,3.81
2019-03-11T03:40:16.569Z,3.81
2019-03-11T03:41:16.629Z,3.74
2019-03-11T03:42:16.901Z,3.72
2019-03-11T03:43:16.207Z,3.78
2019-03-11T03:44:16.482Z,3.86
2019-03-11T03:45:16.757Z,3.83
2019-03-11T03:46:19.001Z,3.83
2019-03-11T03:47:17.005Z,3.88
2019-03-11T03:48:16.326Z,3.89
2019-03-11T03:49:16.658Z,3.92
2019-03-11T03:50:16.951Z,3.96
2019-03-11T03:51:16.987Z,4.03
2019-03-11T03:52:16.266Z,4.05
2019-03-11T03:53:16.553Z,4.00
2019-03-11T03:54:16.839Z,3.92
2019-03-11T03:55:17.136Z,3.92
2019-03-11T03:56:16.410Z,3.83
2019-03-11T03:57:16.670Z,3.88
2019-03-11T03:58:16.952Z,3.83
2019-03-11T03:59:16.226Z,3.78
2019-03-11T04:00:16.509Z,3.89
2019-03-11T04:01:16.556Z,3.81
2019-03-11T04:02:16.847Z,3.77
2019-03-11T04:03:17.127Z,3.78
2019-03-11T04:04:16.398Z,3.81
2019-03-11T04:05:16.695Z,3.81
2019-03-11T04:06:16.975Z,3.81
2019-03-11T04:07:16.247Z,3.83
2019-03-11T04:08:16.523Z,3.81
2019-03-11T04:09:16.819Z,3.72
2019-03-11T04:10:17.109Z,3.71
2019-03-11T04:11:17.149Z,3.71
2019-03-11T04:12:16.475Z,3.77
2019-03-11T04:13:16.753Z,3.71
2019-03-11T04:14:17.035Z,3.71
2019-03-11T04:15:16.313Z,3.67
2019-03-11T04:16:16.600Z,3.77
2019-03-11T04:17:16.883Z,3.82
2019-03-11T04:18:17.228Z,3.81
2019-03-11T04:19:16.522Z,3.85
2019-03-11T04:20:16.801Z,3.86
2019-03-11T04:21:16.837Z,3.89
2019-03-11T04:22:17.122Z,3.78
2019-03-11T04:23:16.396Z,3.79
2019-03-11T04:24:16.668Z,3.79
2019-03-11T04:25:16.954Z,3.75
2019-03-11T04:26:16.235Z,3.89
2019-03-11T04:27:16.511Z,3.92
2019-03-11T04:28:16.775Z,3.96
2019-03-11T04:29:17.058Z,3.96
2019-03-11T04:30:16.327Z,3.95
2019-03-11T04:31:16.382Z,3.98
2019-03-11T04:32:16.649Z,3.96
2019-03-11T04:33:16.928Z,3.98
2019-03-11T04:34:17.194Z,3.98
2019-03-11T04:35:16.470Z,3.92
2019-03-11T04:36:16.746Z,4.02
2019-03-11T04:37:17.015Z,4.02
2019-03-11T04:38:16.281Z,3.98
2019-03-11T04:39:16.552Z,4.05
2019-03-11T04:40:16.837Z,4.02
2019-03-11T04:41:16.885Z,3.99
2019-03-11T04:42:17.147Z,3.98
2019-03-11T04:43:16.425Z,3.92
2019-03-11T04:44:16.690Z,3.93
2019-03-11T04:45:16.966Z,3.93
2019-03-11T04:46:16.245Z,3.89
2019-03-11T04:47:16.508Z,3.89
2019-03-11T04:48:16.775Z,3.96
2019-03-11T04:49:17.041Z,3.98
2019-03-11T04:50:16.304Z,4.05
2019-03-11T04:51:16.388Z,3.93
2019-03-11T04:52:16.654Z,3.99
2019-03-11T04:53:16.925Z,4.00
2019-03-11T04:54:17.197Z,3.98
2019-03-11T04:55:16.469Z,3.93
2019-03-11T04:56:16.737Z,4.08
2019-03-11T04:57:17.002Z,4.12
2019-03-11T04:58:16.267Z,4.12
2019-03-11T04:59:16.527Z,4.09
2019-03-11T05:00:16.817Z,4.09
2019-03-11T05:01:16.844Z,4.09
2019-03-11T05:02:17.115Z,4.03
2019-03-11T05:03:16.381Z,4.06
2019-03-11T05:04:16.661Z,4.03
2019-03-11T05:05:16.925Z,4.06
2019-03-11T05:06:17.187Z,4.10
2019-03-11T05:07:16.451Z,4.12
2019-03-11T05:08:16.714Z,4.12
2019-03-11T05:09:16.983Z,4.09
2019-03-11T05:10:16.575Z,4.05
2019-03-11T05:11:16.311Z,4.10
2019-03-11T05:12:16.617Z,4.16
2019-03-11T05:13:16.946Z,4.14
2019-03-11T05:14:16.285Z,4.19
2019-03-11T05:15:16.616Z,4.14
2019-03-11T05:16:16.975Z,4.14
2019-03-11T05:17:16.367Z,4.17
2019-03-11T05:18:16.750Z,4.10
2019-03-11T05:19:17.143Z,4.20
2019-03-11T05:20:16.573Z,4.20
2019-03-11T05:21:16.608Z,4.16
2019-03-11T05:22:16.999Z,4.14
2019-03-11T05:23:16.387Z,4.20
2019-03-11T05:24:16.771Z,4.23
2019-03-11T05:25:17.167Z,4.23
2019-03-11T05:26:16.583Z,4.20
2019-03-11T05:28:17.140Z,4.03
2019-03-11T05:29:16.479Z,3.96
2019-03-11T05:30:16.806Z,3.83
2019-03-11T05:31:16.863Z,3.79
2019-03-11T05:32:17.190Z,3.79
2019-03-11T05:33:16.523Z,3.68
2019-03-11T05:34:18.410Z,3.68
2019-03-11T05:35:17.012Z,3.68
2019-03-11T05:36:16.342Z,3.62
2019-03-11T05:37:16.680Z,3.62
2019-03-11T05:38:17.016Z,3.64
2019-03-11T05:39:16.422Z,3.57
2019-03-11T05:40:16.762Z,3.64
2019-03-11T05:41:16.814Z,3.64
2019-03-11T05:42:17.143Z,3.58
2019-03-11T05:43:16.496Z,3.54
2019-03-11T05:44:16.801Z,3.50
2019-03-11T05:45:17.106Z,3.49
2019-03-11T05:46:16.367Z,3.47
2019-03-11T05:47:16.631Z,3.44
2019-03-11T05:48:16.895Z,3.43
2019-03-11T05:49:17.165Z,3.46
2019-03-11T05:50:16.439Z,3.44
2019-03-11T05:51:16.476Z,3.40
2019-03-11T05:52:16.748Z,3.36
2019-03-11T05:53:17.032Z,3.36
2019-03-11T05:54:16.298Z,3.36
2019-03-11T05:55:16.563Z,3.36
2019-03-11T05:56:16.832Z,3.39
2019-03-11T05:57:17.095Z,3.40
2019-03-11T05:58:16.366Z,3.50
2019-03-11T05:59:16.631Z,3.47
2019-03-11T06:00:16.917Z,3.51
2019-03-11T06:01:16.977Z,3.53
2019-03-11T06:02:16.243Z,3.55
2019-03-11T06:03:16.510Z,3.55
2019-03-11T06:04:16.769Z,3.53
2019-03-11T06:05:17.038Z,3.54
2019-03-11T06:06:16.310Z,3.57
2019-03-11T06:07:16.575Z,3.58
2019-03-11T06:08:16.846Z,3.61
2019-03-11T06:09:17.109Z,3.64
2019-03-11T06:10:16.384Z,3.67
2019-03-11T06:11:16.439Z,3.69
2019-03-11T06:12:16.709Z,3.71
2019-03-11T06:13:16.972Z,3.71
2019-03-11T06:14:16.244Z,3.72
2019-03-11T06:15:16.511Z,3.78
2019-03-11T06:16:16.793Z,3.75
2019-03-11T06:17:17.051Z,3.78
2019-03-11T06:18:16.311Z,3.82
2019-03-11T06:19:16.578Z,3.86
2019-03-11T06:20:16.852Z,3.85
2019-03-11T06:21:16.920Z,3.85
2019-03-11T06:22:17.184Z,3.95
2019-03-11T06:23:16.445Z,3.98
2019-03-11T06:24:16.712Z,4.05
2019-03-11T06:25:16.980Z,4.10
2019-03-11T06:26:16.250Z,4.14
2019-03-11T06:27:16.530Z,4.08
2019-03-11T06:28:16.797Z,4.10
2019-03-11T06:29:17.067Z,4.12
2019-03-11T06:30:16.346Z,4.12
2019-03-11T06:31:16.391Z,4.14
2019-03-11T06:32:16.652Z,4.06
2019-03-11T06:33:16.920Z,4.06
2019-03-11T06:34:17.191Z,4.03
2019-03-11T06:35:16.507Z,4.05
2019-03-11T06:36:16.798Z,4.02
2019-03-11T06:37:17.096Z,3.99
2019-03-11T06:38:16.370Z,3.98
2019-03-11T06:39:16.634Z,3.95
2019-03-11T06:40:16.913Z,3.93
2019-03-11T06:41:16.941Z,3.95
2019-03-11T06:42:17.210Z,3.98
2019-03-11T06:43:16.476Z,3.93
2019-03-11T06:44:16.746Z,3.90
2019-03-11T06:45:17.016Z,3.92
2019-03-11T06:46:16.290Z,3.90
2019-03-11T06:47:16.553Z,3.93
2019-03-11T06:48:16.897Z,3.90
2019-03-11T06:49:17.160Z,3.95
2019-03-11T06:50:16.455Z,3.90
2019-03-11T06:51:16.459Z,3.90
2019-03-11T06:52:16.717Z,3.86
2019-03-11T06:53:16.995Z,3.86
2019-03-11T06:54:16.268Z,3.82
2019-03-11T06:55:16.539Z,3.67
2019-03-11T06:56:16.814Z,3.61
2019-03-11T06:57:17.103Z,3.53
2019-03-11T06:58:16.386Z,3.44
2019-03-11T06:59:16.642Z,3.40
2019-03-11T07:00:16.934Z,3.40
2019-03-11T07:01:16.970Z,3.44
2019-03-11T07:02:16.231Z,3.46
2019-03-11T07:03:16.504Z,3.47
2019-03-11T07:04:16.766Z,3.53
2019-03-11T07:05:20.230Z,3.50
2019-03-11T07:06:16.503Z,3.50
2019-03-11T07:07:16.766Z,3.55
2019-03-11T07:08:17.027Z,3.54
2019-03-11T07:09:16.330Z,3.55
2019-03-11T07:10:16.790Z,3.51
2019-03-11T07:11:16.811Z,3.49
2019-03-11T07:12:17.073Z,3.41
2019-03-11T07:13:16.339Z,3.30
2019-03-11T07:14:16.625Z,3.27
2019-03-11T07:15:16.895Z,3.22
2019-03-11T07:16:17.167Z,3.20
2019-03-11T07:17:16.434Z,3.10
2019-03-11T07:18:16.691Z,3.06
2019-03-11T07:19:16.970Z,3.10
2019-03-11T07:20:16.239Z,3.14
2019-03-11T07:21:16.286Z,3.09
2019-03-11T07:22:16.554Z,3.09
2019-03-11T07:23:16.823Z,2.99
2019-03-11T07:24:17.193Z,2.98
2019-03-11T07:25:16.466Z,2.99
2019-03-11T07:26:16.734Z,2.95
2019-03-11T07:27:17.016Z,2.98
2019-03-11T07:28:16.327Z,2.96
2019-03-11T07:29:16.617Z,2.98
2019-03-11T07:30:16.904Z,2.99
2019-03-11T07:31:16.923Z,3.02
2019-03-11T07:32:17.191Z,2.98
2019-03-11T07:33:16.460Z,2.99
2019-03-11T07:34:16.731Z,2.81
2019-03-11T07:35:17.001Z,2.91
2019-03-11T07:36:16.276Z,2.89
2019-03-11T07:37:16.613Z,2.85
2019-03-11T07:38:16.982Z,2.81
2019-03-11T07:39:16.255Z,2.72
2019-03-11T07:40:28.298Z,2.69
2019-03-11T07:41:16.649Z,2.68
2019-03-11T07:42:16.904Z,2.71
2019-03-11T07:43:17.192Z,2.71
2019-03-11T07:44:16.552Z,2.72
2019-03-11T07:45:16.833Z,2.78
2019-03-11T07:46:17.107Z,2.76
2019-03-11T07:47:16.370Z,2.75
2019-03-11T07:48:16.631Z,2.68
2019-03-11T07:49:16.903Z,2.76
2019-03-11T07:50:17.195Z,2.78
2019-03-11T07:51:16.218Z,2.78
2019-03-11T07:52:16.495Z,2.68
2019-03-11T07:53:16.767Z,2.79
2019-03-11T07:54:17.049Z,2.63
2019-03-11T07:55:16.364Z,2.57
2019-03-11T07:56:16.645Z,2.51
2019-03-11T07:57:16.916Z,2.45
2019-03-11T07:58:17.184Z,2.61
2019-03-11T07:59:16.460Z,2.50
2019-03-11T08:00:17.036Z,2.50
2019-03-11T08:01:16.783Z,2.58
2019-03-11T08:02:18.326Z,2.54
2019-03-11T08:03:16.856Z,2.51
2019-03-11T08:04:17.119Z,2.58
2019-03-11T08:05:16.406Z,2.57
2019-03-11T08:06:18.722Z,2.64
2019-03-11T08:07:16.458Z,2.67
2019-03-11T08:08:16.718Z,2.55
2019-03-11T08:09:16.998Z,2.53
2019-03-11T08:10:16.337Z,2.71
2019-03-11T08:11:16.384Z,2.72
2019-03-11T08:12:16.643Z,2.71
2019-03-11T08:13:16.913Z,2.75
2019-03-11T08:14:17.177Z,2.82
2019-03-11T08:15:16.499Z,2.65
2019-03-11T08:16:16.778Z,2.63
2019-03-11T08:17:17.046Z,2.74
2019-03-11T08:18:16.336Z,2.74
2019-03-11T08:19:16.601Z,2.75
2019-03-11T08:20:16.871Z,2.76
2019-03-11T08:21:16.898Z,2.64
2019-03-11T08:22:17.176Z,2.61
2019-03-11T08:23:16.449Z,2.67
2019-03-11T08:24:16.851Z,2.67
2019-03-11T08:25:17.190Z,2.67
2019-03-11T08:26:16.498Z,2.68
2019-03-11T08:27:16.763Z,2.64
2019-03-11T08:28:17.028Z,2.67
2019-03-11T08:29:16.297Z,2.79
2019-03-11T08:30:16.580Z,2.81
2019-03-11T08:31:16.617Z,2.86
2019-03-11T08:32:16.885Z,2.78
2019-03-11T08:33:17.154Z,2.85
2019-03-11T08:34:16.427Z,2.86
2019-03-11T08:35:16.691Z,2.89
2019-03-11T08:36:16.967Z,2.98
2019-03-11T08:37:16.228Z,2.95
2019-03-11T08:38:16.511Z,2.95
2019-03-11T08:39:16.770Z,2.99
2019-03-11T08:40:17.058Z,2.95
2019-03-11T08:41:17.410Z,3.02
2019-03-11T08:42:16.681Z,3.03
2019-03-11T08:43:16.942Z,2.93
2019-03-11T08:44:16.229Z,2.95
2019-03-11T08:45:16.494Z,3.02
2019-03-11T08:46:16.755Z,3.00
2019-03-11T08:47:17.017Z,2.88
2019-03-11T08:48:16.277Z,2.84
2019-03-11T08:49:16.556Z,2.99
2019-03-11T08:50:16.837Z,2.85
2019-03-11T08:51:16.874Z,2.85
2019-03-11T08:52:17.138Z,2.91
2019-03-11T08:53:16.402Z,2.98
2019-03-11T08:54:16.674Z,2.99
2019-03-11T08:55:16.953Z,2.96
2019-03-11T08:56:16.220Z,2.93
2019-03-11T08:57:16.490Z,2.93
2019-03-11T08:58:16.750Z,2.89
2019-03-11T08:59:17.013Z,2.84
2019-03-11T09:00:16.310Z,2.91
2019-03-11T09:01:16.339Z,2.86
2019-03-11T09:02:16.601Z,2.91
2019-03-11T09:03:16.863Z,2.89
2019-03-11T09:04:17.146Z,2.85
2019-03-11T09:05:16.445Z,2.91
2019-03-11T09:06:16.725Z,2.85
2019-03-11T09:07:16.987Z,2.91
2019-03-11T09:08:16.273Z,2.88
2019-03-11T09:09:16.549Z,2.89
2019-03-11T09:10:16.834Z,3.03
2019-03-11T09:11:16.871Z,2.93
2019-03-11T09:12:17.131Z,3.00
2019-03-11T09:13:16.394Z,3.02
2019-03-11T09:14:16.651Z,3.00
2019-03-11T09:15:16.931Z,2.96
2019-03-11T09:16:16.248Z,2.98
2019-03-11T09:17:16.510Z,3.04
2019-03-11T09:18:16.786Z,3.03
2019-03-11T09:19:17.050Z,3.19
2019-03-11T09:20:16.314Z,3.06
2019-03-11T09:21:16.396Z,3.40
2019-03-11T09:22:16.655Z,3.36
2019-03-11T09:23:16.919Z,3.22
2019-03-11T09:24:19.379Z,3.27
2019-03-11T09:25:17.006Z,3.24
2019-03-11T09:26:16.294Z,3.44
2019-03-11T09:27:16.575Z,3.60
2019-03-11T09:28:16.858Z,3.58
2019-03-11T09:29:16.242Z,3.72
2019-03-11T09:30:16.516Z,3.78
2019-03-11T09:31:16.580Z,3.74
2019-03-11T09:32:19.253Z,3.75
2019-03-11T09:33:16.949Z,3.90
2019-03-11T09:34:16.230Z,4.05
2019-03-11T09:35:16.515Z,4.23
2019-03-11T09:36:16.780Z,4.27
2019-03-11T09:37:17.051Z,4.20
2019-03-11T09:38:16.315Z,4.27
2019-03-11T09:39:16.574Z,4.46
2019-03-11T09:40:16.847Z,4.57
2019-03-11T09:41:16.877Z,4.43
2019-03-11T09:42:17.151Z,4.24
2019-03-11T09:43:16.405Z,4.24
2019-03-11T09:44:16.688Z,4.55
2019-03-11T09:45:16.951Z,4.68
2019-03-11T09:46:16.230Z,4.43
2019-03-11T09:47:16.505Z,4.46
2019-03-11T09:48:16.773Z,4.60
2019-03-11T09:49:17.034Z,4.58
2019-03-11T09:50:16.307Z,4.65
2019-03-11T09:51:16.346Z,4.88
2019-03-11T09:52:16.618Z,4.65
2019-03-11T09:53:16.890Z,4.79
2019-03-11T09:54:16.219Z,4.78
2019-03-11T09:55:16.509Z,4.84
2019-03-11T09:56:16.783Z,4.78
2019-03-11T09:57:17.044Z,4.74
2019-03-11T09:58:16.318Z,4.63
2019-03-11T09:59:16.581Z,4.63
2019-03-11T10:00:16.896Z,4.75
2019-03-11T10:01:17.131Z,4.71
2019-03-11T10:02:16.461Z,4.61
2019-03-11T10:03:16.735Z,4.63
2019-03-11T10:04:17.013Z,4.69
2019-03-11T10:05:16.288Z,4.57
2019-03-11T10:06:16.564Z,4.61
2019-03-11T10:07:16.837Z,4.61
2019-03-11T10:08:17.096Z,4.61
2019-03-11T10:09:16.360Z,4.57
2019-03-11T10:10:16.637Z,4.58
2019-03-11T10:11:16.689Z,4.51
2019-03-11T10:12:16.966Z,4.55
2019-03-11T10:13:16.233Z,4.60
2019-03-11T10:14:16.500Z,4.60
2019-03-11T10:15:16.766Z,4.61
2019-03-11T10:16:17.036Z,4.65
2019-03-11T10:17:16.306Z,4.67
2019-03-11T10:18:16.575Z,4.76
2019-03-11T10:19:16.847Z,4.67
2019-03-11T10:20:17.133Z,4.71
2019-03-11T10:21:17.170Z,4.74
2019-03-11T10:22:16.451Z,4.75
2019-03-11T10:23:16.715Z,4.63
2019-03-11T10:24:17.033Z,4.67
2019-03-11T10:25:16.301Z,4.55
2019-03-11T10:26:16.571Z,4.63
2019-03-11T10:27:16.834Z,4.53
2019-03-11T10:28:17.108Z,4.57
2019-03-11T10:29:16.376Z,4.61
2019-03-11T10:30:16.651Z,4.55
2019-03-11T10:31:16.723Z,4.44
2019-03-11T10:32:16.990Z,4.21
2019-03-11T10:33:16.255Z,4.06
2019-03-11T10:34:16.524Z,3.81
2019-03-11T10:35:31.186Z,3.77
2019-03-11T10:36:16.868Z,3.88
2019-03-11T10:37:17.123Z,3.92
2019-03-11T10:38:16.386Z,4.06
2019-03-11T10:39:16.650Z,4.08
2019-03-11T10:40:16.928Z,4.19
2019-03-11T10:41:16.976Z,4.33
2019-03-11T10:42:16.230Z,4.37
2019-03-11T10:43:16.493Z,4.43
2019-03-11T10:44:16.766Z,4.33
2019-03-11T10:45:17.037Z,4.33
2019-03-11T10:46:16.300Z,4.36
2019-03-11T10:47:16.571Z,4.41
2019-03-11T10:48:16.841Z,4.44
2019-03-11T10:49:17.114Z,4.40
2019-03-11T10:50:16.410Z,4.44
2019-03-11T10:51:16.452Z,4.53
2019-03-11T10:52:16.726Z,4.51
2019-03-11T10:53:16.993Z,4.57
2019-03-11T10:54:16.257Z,4.53
2019-03-11T10:55:16.523Z,4.34
2019-03-11T10:56:16.817Z,4.48
2019-03-11T10:57:17.102Z,4.60
2019-03-11T10:58:16.373Z,4.58
2019-03-11T10:59:16.652Z,4.41
2019-03-11T11:00:16.939Z,4.50
2019-03-11T11:01:16.964Z,4.48
2019-03-11T11:02:16.248Z,4.50
2019-03-11T11:03:16.519Z,4.57
2019-03-11T11:04:16.788Z,4.60
2019-03-11T11:05:17.083Z,4.68
2019-03-11T11:06:17.279Z,4.71
2019-03-11T11:07:16.673Z,4.63
2019-03-11T11:08:16.936Z,4.55
2019-03-11T11:09:17.201Z,4.69
2019-03-11T11:10:16.491Z,4.82
2019-03-11T11:11:16.510Z,4.91
2019-03-11T11:12:16.771Z,5.14
2019-03-11T11:13:17.031Z,5.35
2019-03-11T11:14:16.292Z,5.27
2019-03-11T11:15:16.572Z,5.71
2019-03-11T11:16:16.833Z,5.75
2019-03-11T11:17:17.100Z,5.50
2019-03-11T11:18:16.363Z,5.55
2019-03-11T11:19:16.619Z,5.48
2019-03-11T11:20:16.898Z,5.57
2019-03-11T11:21:16.956Z,5.61
2019-03-11T11:22:16.235Z,5.57
2019-03-11T11:23:16.510Z,5.44
2019-03-11T11:24:16.786Z,5.43
2019-03-11T11:25:17.050Z,5.51
2019-03-11T11:26:16.323Z,5.54
2019-03-11T11:27:16.609Z,5.51
2019-03-11T11:28:16.869Z,5.52
2019-03-11T11:29:17.140Z,5.61
2019-03-11T11:30:16.428Z,5.65
2019-03-11T11:31:16.447Z,5.65
2019-03-11T11:32:16.726Z,5.70
2019-03-11T11:33:17.018Z,5.57
2019-03-11T11:34:16.290Z,5.22
2019-03-11T11:35:16.550Z,5.30
2019-03-11T11:36:16.837Z,4.98
2019-03-11T11:37:17.104Z,4.92
2019-03-11T11:38:16.417Z,4.09
2019-03-11T11:39:16.696Z,3.79
2019-03-11T11:40:16.969Z,3.57
2019-03-11T11:41:17.038Z,3.41
2019-03-11T11:42:16.332Z,3.77
2019-03-11T11:43:16.599Z,3.93
2019-03-11T11:44:16.860Z,4.12
2019-03-11T11:45:17.127Z,4.40
2019-03-11T11:46:16.384Z,4.30
2019-03-11T11:47:16.654Z,4.55
2019-03-11T11:48:16.914Z,4.51
2019-03-11T11:49:17.198Z,4.78
2019-03-11T11:50:16.473Z,4.75
2019-03-11T11:51:16.518Z,4.89
2019-03-11T11:52:16.788Z,4.67
2019-03-11T11:53:17.049Z,4.28
2019-03-11T11:54:16.321Z,4.40
2019-03-11T11:55:16.605Z,4.16
2019-03-11T11:56:16.886Z,4.16
2019-03-11T11:57:17.149Z,4.00
2019-03-11T11:58:16.406Z,4.03
2019-03-11T11:59:16.668Z,4.26
2019-03-11T12:00:16.947Z,4.44
2019-03-11T12:01:16.993Z,4.51
2019-03-11T12:02:16.259Z,4.64
2019-03-11T12:03:16.525Z,4.74
2019-03-11T12:04:16.793Z,4.48
2019-03-11T12:05:17.089Z,4.34
2019-03-11T12:06:16.360Z,4.47
2019-03-11T12:07:16.630Z,4.61
2019-03-11T12:08:16.946Z,4.65
2019-03-11T12:09:16.238Z,4.63
2019-03-11T12:10:16.504Z,5.00
2019-03-11T12:11:16.542Z,4.92
2019-03-11T12:12:16.804Z,5.06
2019-03-11T12:13:17.087Z,5.35
2019-03-11T12:14:16.355Z,5.23
2019-03-11T12:15:16.625Z,5.20
2019-03-11T12:16:16.894Z,5.30
2019-03-11T12:17:17.210Z,5.35
2019-03-11T12:18:16.471Z,5.44
2019-03-11T12:19:16.729Z,5.30
2019-03-11T12:20:17.022Z,5.20
2019-03-11T12:21:17.051Z,5.38
2019-03-11T12:22:16.319Z,5.41
2019-03-11T12:23:16.609Z,5.61
2019-03-11T12:24:16.957Z,5.57
2019-03-11T12:25:16.229Z,5.65
2019-03-11T12:26:16.494Z,5.74
2019-03-11T12:27:16.764Z,6.06
2019-03-11T12:28:17.030Z,6.12
2019-03-11T12:29:16.285Z,5.93
2019-03-11T12:30:16.554Z,5.77
2019-03-11T12:31:16.615Z,5.78
2019-03-11T12:32:16.891Z,5.84
2019-03-11T12:33:17.163Z,5.86
2019-03-11T12:34:16.437Z,5.92
2019-03-11T12:35:16.707Z,5.88
2019-03-11T12:36:16.969Z,5.31
2019-03-11T12:37:16.232Z,5.03
2019-03-11T12:38:16.520Z,4.95
2019-03-11T12:39:16.783Z,4.71
2019-03-11T12:40:17.051Z,3.44
2019-03-11T12:41:17.108Z,3.43
2019-03-11T12:42:16.376Z,3.61
2019-03-11T12:43:16.647Z,3.71
2019-03-11T12:44:16.923Z,3.92
2019-03-11T12:45:17.192Z,3.89
2019-03-11T12:46:16.477Z,3.89
2019-03-11T12:47:16.750Z,4.14
2019-03-11T12:48:17.016Z,4.43
2019-03-11T12:49:16.291Z,4.47
2019-03-11T12:50:16.567Z,4.61
2019-03-11T12:51:16.597Z,4.54
2019-03-11T12:52:16.868Z,4.71
2019-03-11T12:53:17.130Z,4.95
2019-03-11T12:54:16.403Z,5.02
2019-03-11T12:55:16.677Z,4.99
2019-03-11T12:56:16.953Z,5.40
2019-03-11T12:57:16.236Z,5.09
2019-03-11T12:58:16.500Z,5.44
2019-03-11T12:59:16.770Z,5.40
2019-03-11T13:00:17.039Z,5.55
2019-03-11T13:01:17.092Z,5.70
2019-03-11T13:02:16.347Z,5.81
2019-03-11T13:03:16.617Z,5.78
2019-03-11T13:04:16.898Z,5.89
2019-03-11T13:05:17.166Z,5.67
2019-03-11T13:06:16.432Z,5.57
2019-03-11T13:07:16.700Z,5.41
2019-03-11T13:08:16.972Z,5.43
2019-03-11T13:09:16.235Z,5.35
2019-03-11T13:10:16.525Z,5.50
2019-03-11T13:11:16.555Z,5.48
2019-03-11T13:12:16.814Z,5.38
2019-03-11T13:13:18.979Z,5.12
2019-03-11T13:14:16.639Z,4.85
2019-03-11T13:15:16.915Z,4.82
2019-03-11T13:16:17.195Z,4.68
2019-03-11T13:17:16.461Z,4.60
2019-03-11T13:18:16.723Z,4.37
2019-03-11T13:19:16.988Z,4.46